Terminal Aerodrome Forecast
Issued by NWS

Home | Current Version | Previous Version | Text Only | Print | Product List | Glossary On
Versions: 1 2 3 4 5 6 7 8 9 10 11 12 13 14 15 16 17 18 19 20 21 22 23 24 25 26 27 28 29 30 31 32 33 34 35 36 37 38 39 40
000
FTUS45 KBOU 011726
TAFBJC
TAF
KBJC 011726Z 0118/0218 VRB05KT P6SM FEW100 SCT200
     FM012100 08010KT P6SM SCT090 BKN150
     FM012300 05012G18KT P6SM SCT080 BKN120
     FM020300 17009KT P6SM FEW090 SCT150
     FM020500 VRB06KT P6SM FEW150
     FM021200 27006KT P6SM FEW150
     FM021500 35008KT P6SM FEW090 SCT220=

USA.gov is the U.S. government's official web portal to all federal, state and local government web resources and services.